createdAt,value
2017-05-18T00:00:15.403Z,21.49
2017-05-18T00:01:13.736Z,21.49
2017-05-18T00:02:13.679Z,21.49
2017-05-18T00:03:13.815Z,21.48
2017-05-18T00:04:13.723Z,21.48
2017-05-18T00:05:13.899Z,21.48
2017-05-18T00:06:13.839Z,21.47
2017-05-18T00:07:13.913Z,21.47
2017-05-18T00:08:13.760Z,21.47
2017-05-18T00:09:15.370Z,21.46
2017-05-18T00:10:14.619Z,21.51
2017-05-18T00:11:13.906Z,21.46
2017-05-18T00:12:13.908Z,21.45
2017-05-18T00:13:11.514Z,21.45
2017-05-18T00:14:14.411Z,21.45
2017-05-18T00:15:11.841Z,21.44
2017-05-18T00:16:13.728Z,21.44
2017-05-18T00:17:13.965Z,21.43
2017-05-18T00:18:11.177Z,21.43
2017-05-18T00:19:14.274Z,21.95
2017-05-18T00:20:14.345Z,22.01
2017-05-18T00:21:14.490Z,22.03
2017-05-18T00:22:13.335Z,22.04
2017-05-18T00:23:15.341Z,22.03
2017-05-18T00:24:15.552Z,22.05
2017-05-18T00:25:13.788Z,22.04
2017-05-18T00:26:14.685Z,22.03
2017-05-18T00:27:14.034Z,22.04
2017-05-18T00:28:14.679Z,21.52
2017-05-18T00:29:15.195Z,21.46
2017-05-18T00:30:14.281Z,21.44
2017-05-18T00:31:14.273Z,21.41
2017-05-18T00:32:14.500Z,21.41
2017-05-18T00:33:10.912Z,21.40
2017-05-18T00:34:10.193Z,21.40
2017-05-18T00:35:14.100Z,21.40
2017-05-18T00:36:14.201Z,21.40
2017-05-18T00:37:14.220Z,21.39
2017-05-18T00:38:15.867Z,21.39
2017-05-18T00:39:13.852Z,21.37
2017-05-18T00:40:14.394Z,21.39
2017-05-18T00:41:14.424Z,21.39
2017-05-18T00:42:14.431Z,21.38
2017-05-18T00:43:14.570Z,21.38
2017-05-18T00:44:13.534Z,21.38
2017-05-18T00:45:13.802Z,21.38
2017-05-18T00:46:13.802Z,21.38
2017-05-18T00:47:14.303Z,21.37
2017-05-18T00:48:14.831Z,21.44
2017-05-18T00:49:13.876Z,21.37
2017-05-18T00:50:14.192Z,21.37
2017-05-18T00:51:14.358Z,21.38
2017-05-18T00:52:13.525Z,21.37
2017-05-18T00:53:13.792Z,21.36
2017-05-18T00:54:14.275Z,21.35
2017-05-18T00:55:14.199Z,21.35
2017-05-18T00:56:14.220Z,21.35
2017-05-18T00:57:10.146Z,21.35
2017-05-18T00:58:11.192Z,21.34
2017-05-18T00:59:14.073Z,21.88
2017-05-18T01:00:14.167Z,21.58
2017-05-18T01:01:14.616Z,21.48
2017-05-18T01:02:11.123Z,21.36
2017-05-18T01:03:14.287Z,21.88
2017-05-18T01:04:14.349Z,21.39
2017-05-18T01:05:15.339Z,21.35
2017-05-18T01:06:12.277Z,21.34
2017-05-18T01:07:13.654Z,21.87
2017-05-18T01:08:13.776Z,21.90
2017-05-18T01:09:13.543Z,21.41
2017-05-18T01:10:14.288Z,21.37
2017-05-18T01:11:14.951Z,21.35
2017-05-18T01:12:14.383Z,21.37
2017-05-18T01:13:15.374Z,21.32
2017-05-18T01:14:15.292Z,21.32
2017-05-18T01:15:14.513Z,21.32
2017-05-18T01:16:13.520Z,21.31
2017-05-18T01:17:13.510Z,21.31
2017-05-18T01:18:13.525Z,21.31
2017-05-18T01:19:13.465Z,21.30
2017-05-18T01:20:13.241Z,21.31
2017-05-18T01:21:14.285Z,21.31
2017-05-18T01:22:11.739Z,21.30
2017-05-18T01:23:13.468Z,21.30
2017-05-18T01:24:10.849Z,21.30
2017-05-18T01:25:13.917Z,21.32
2017-05-18T01:26:14.436Z,21.37
2017-05-18T01:27:13.976Z,21.32
2017-05-18T01:28:14.295Z,21.29
2017-05-18T01:29:14.474Z,21.29
2017-05-18T01:30:14.023Z,21.29
2017-05-18T01:31:10.904Z,21.29
2017-05-18T01:32:14.637Z,21.29
2017-05-18T01:33:13.595Z,21.29
2017-05-18T01:34:13.584Z,21.29
2017-05-18T01:35:14.725Z,21.30
2017-05-18T01:36:14.114Z,21.81
2017-05-18T01:37:15.330Z,21.86
2017-05-18T01:38:14.690Z,21.61
2017-05-18T01:39:15.018Z,21.36
2017-05-18T01:40:14.654Z,21.31
2017-05-18T01:41:14.154Z,21.29
2017-05-18T01:42:14.443Z,21.28
2017-05-18T01:43:13.546Z,21.27
2017-05-18T01:44:13.282Z,21.27
2017-05-18T01:45:14.602Z,21.32
2017-05-18T01:46:13.827Z,21.30
2017-05-18T01:47:13.993Z,21.80
2017-05-18T01:48:13.942Z,21.32
2017-05-18T01:49:15.037Z,21.30
2017-05-18T01:50:13.846Z,21.29
2017-05-18T01:51:14.288Z,21.36
2017-05-18T01:52:15.006Z,21.28
2017-05-18T01:53:13.951Z,21.27
2017-05-18T01:54:14.548Z,21.28
2017-05-18T01:55:13.718Z,21.27
2017-05-18T01:56:13.563Z,21.27
2017-05-18T01:57:09.732Z,21.26
2017-05-18T01:58:14.407Z,21.27
2017-05-18T01:59:10.818Z,21.26
2017-05-18T02:00:13.419Z,21.26
2017-05-18T02:01:09.558Z,21.26
2017-05-18T02:02:14.250Z,21.26
2017-05-18T02:03:14.413Z,21.26
2017-05-18T02:04:13.522Z,21.26
2017-05-18T02:05:13.608Z,21.26
2017-05-18T02:06:14.255Z,21.27
2017-05-18T02:07:14.532Z,21.26
2017-05-18T02:08:10.184Z,21.25
2017-05-18T02:09:14.257Z,21.31
2017-05-18T02:10:14.082Z,21.26
2017-05-18T02:11:14.608Z,21.26
2017-05-18T02:12:13.704Z,21.25
2017-05-18T02:13:13.879Z,21.26
2017-05-18T02:14:14.166Z,21.26
2017-05-18T02:15:14.126Z,21.26
2017-05-18T02:16:14.226Z,21.25
2017-05-18T02:17:15.043Z,21.25
2017-05-18T02:18:14.547Z,21.25
2017-05-18T02:19:14.328Z,21.25
2017-05-18T02:20:14.479Z,21.24
2017-05-18T02:21:16.215Z,21.24
2017-05-18T02:22:13.944Z,21.25
2017-05-18T02:23:14.295Z,21.32
2017-05-18T02:24:14.253Z,21.77
2017-05-18T02:25:10.928Z,21.82
2017-05-18T02:26:14.693Z,21.49
2017-05-18T02:27:14.697Z,21.33
2017-05-18T02:28:13.848Z,21.28
2017-05-18T02:29:13.750Z,21.26
2017-05-18T02:30:13.840Z,21.25
2017-05-18T02:31:10.828Z,21.24
2017-05-18T02:32:14.078Z,21.25
2017-05-18T02:33:14.390Z,21.23
2017-05-18T02:34:15.465Z,21.29
2017-05-18T02:35:14.366Z,21.29
2017-05-18T02:36:11.938Z,21.23
2017-05-18T02:37:14.036Z,21.23
2017-05-18T02:38:15.081Z,21.24
2017-05-18T02:39:14.861Z,21.23
2017-05-18T02:40:14.405Z,21.22
2017-05-18T02:41:14.925Z,21.23
2017-05-18T02:42:14.315Z,21.23
2017-05-18T02:43:14.491Z,21.22
2017-05-18T02:44:13.813Z,21.22
2017-05-18T02:45:13.757Z,21.23
2017-05-18T02:46:14.553Z,21.32
2017-05-18T02:47:14.481Z,21.25
2017-05-18T02:48:14.184Z,21.25
2017-05-18T02:49:14.804Z,21.24
2017-05-18T02:50:14.342Z,21.25
2017-05-18T02:51:14.856Z,21.25
2017-05-18T02:52:10.046Z,21.24
2017-05-18T02:53:13.799Z,21.24
2017-05-18T02:54:14.467Z,21.27
2017-05-18T02:55:13.227Z,21.25
2017-05-18T02:56:14.457Z,21.25
2017-05-18T02:57:13.312Z,21.25
2017-05-18T02:58:14.660Z,21.24
2017-05-18T02:59:14.295Z,21.24
2017-05-18T03:00:15.694Z,21.24
2017-05-18T03:01:13.665Z,21.24
2017-05-18T03:02:14.302Z,21.27
2017-05-18T03:03:15.828Z,21.41
2017-05-18T03:04:13.958Z,21.30
2017-05-18T03:05:14.431Z,21.29
2017-05-18T03:06:14.073Z,21.78
2017-05-18T03:07:14.115Z,21.48
2017-05-18T03:08:14.170Z,21.32
2017-05-18T03:09:14.034Z,21.28
2017-05-18T03:10:14.234Z,21.25
2017-05-18T03:11:11.197Z,21.24
2017-05-18T03:12:13.909Z,21.23
2017-05-18T03:13:13.863Z,21.23
2017-05-18T03:14:13.928Z,21.23
2017-05-18T03:15:14.101Z,21.23
2017-05-18T03:16:14.181Z,21.75
2017-05-18T03:17:13.991Z,21.81
2017-05-18T03:18:14.114Z,21.84
2017-05-18T03:19:14.727Z,21.84
2017-05-18T03:20:13.768Z,21.50
2017-05-18T03:21:14.045Z,21.35
2017-05-18T03:22:14.594Z,21.33
2017-05-18T03:23:13.138Z,21.24
2017-05-18T03:24:14.309Z,21.23
2017-05-18T03:25:14.987Z,21.23
2017-05-18T03:26:14.966Z,21.21
2017-05-18T03:27:10.536Z,21.21
2017-05-18T03:28:13.957Z,21.75
2017-05-18T03:29:13.794Z,21.80
2017-05-18T03:30:14.302Z,21.83
2017-05-18T03:31:15.183Z,21.83
2017-05-18T03:32:14.880Z,21.84
2017-05-18T03:33:16.585Z,21.83
2017-05-18T03:34:14.244Z,21.32
2017-05-18T03:35:15.708Z,21.26
2017-05-18T03:36:13.925Z,21.24
2017-05-18T03:37:13.856Z,21.22
2017-05-18T03:38:14.058Z,21.21
2017-05-18T03:39:14.325Z,21.20
2017-05-18T03:40:14.365Z,21.20
2017-05-18T03:41:10.647Z,21.20
2017-05-18T03:42:14.214Z,21.19
2017-05-18T03:43:14.322Z,21.19
2017-05-18T03:44:14.059Z,21.18
2017-05-18T03:45:10.981Z,21.18
2017-05-18T03:46:14.033Z,21.19
2017-05-18T03:47:14.188Z,21.18
2017-05-18T03:48:14.222Z,21.18
2017-05-18T03:49:14.277Z,21.18
2017-05-18T03:50:14.334Z,21.18
2017-05-18T03:51:18.547Z,21.18
2017-05-18T03:52:13.722Z,21.19
2017-05-18T03:53:14.278Z,21.23
2017-05-18T03:54:14.203Z,21.17
2017-05-18T03:55:14.170Z,21.18
2017-05-18T03:56:14.602Z,21.18
2017-05-18T03:57:13.711Z,21.17
2017-05-18T03:58:14.660Z,21.17
2017-05-18T03:59:15.218Z,21.17
2017-05-18T04:00:14.117Z,21.18
2017-05-18T04:01:14.217Z,21.17
2017-05-18T04:02:14.175Z,21.18
2017-05-18T04:03:14.557Z,21.25
2017-05-18T04:04:14.307Z,21.17
2017-05-18T04:05:14.699Z,21.24
2017-05-18T04:06:13.707Z,21.17
2017-05-18T04:07:13.668Z,21.17
2017-05-18T04:08:13.575Z,21.17
2017-05-18T04:09:14.604Z,21.17
2017-05-18T04:10:14.000Z,21.23
2017-05-18T04:11:14.001Z,21.17
2017-05-18T04:12:14.437Z,21.16
2017-05-18T04:13:13.605Z,21.16
2017-05-18T04:14:13.603Z,21.16
2017-05-18T04:15:14.062Z,21.19
2017-05-18T04:16:10.274Z,21.16
2017-05-18T04:17:14.478Z,21.17
2017-05-18T04:18:13.115Z,21.17
2017-05-18T04:19:14.180Z,21.17
2017-05-18T04:20:14.502Z,21.16
2017-05-18T04:21:13.532Z,21.16
2017-05-18T04:22:13.495Z,21.16
2017-05-18T04:23:13.706Z,21.16
2017-05-18T04:24:13.611Z,21.16
2017-05-18T04:25:14.947Z,21.16
2017-05-18T04:26:14.402Z,21.23
2017-05-18T04:27:15.016Z,21.20
2017-05-18T04:28:14.308Z,21.16
2017-05-18T04:29:14.319Z,21.16
2017-05-18T04:30:15.880Z,21.16
2017-05-18T04:31:14.210Z,21.22
2017-05-18T04:32:14.694Z,21.16
2017-05-18T04:33:14.511Z,21.20
2017-05-18T04:34:13.508Z,21.16
2017-05-18T04:35:14.780Z,21.16
2017-05-18T04:36:13.851Z,21.16
2017-05-18T04:37:13.924Z,21.15
2017-05-18T04:38:13.765Z,21.16
2017-05-18T04:39:13.867Z,21.16
2017-05-18T04:40:10.328Z,21.15
2017-05-18T04:41:14.778Z,21.15
2017-05-18T04:42:13.783Z,21.15
2017-05-18T04:43:11.273Z,21.14
2017-05-18T04:44:11.113Z,21.67
2017-05-18T04:45:10.042Z,21.72
2017-05-18T04:46:13.926Z,21.74
2017-05-18T04:47:14.164Z,21.75
2017-05-18T04:48:14.151Z,21.75
2017-05-18T04:49:14.288Z,21.76
2017-05-18T04:50:15.137Z,21.75
2017-05-18T04:51:10.692Z,21.75
2017-05-18T04:52:14.199Z,21.24
2017-05-18T04:53:14.484Z,21.24
2017-05-18T04:54:13.575Z,21.16
2017-05-18T04:55:13.741Z,21.15
2017-05-18T04:56:13.767Z,21.14
2017-05-18T04:57:13.714Z,21.14
2017-05-18T04:58:13.565Z,21.13
2017-05-18T04:59:14.093Z,21.13
2017-05-18T05:00:14.387Z,21.13
2017-05-18T05:01:13.286Z,21.12
2017-05-18T05:02:14.374Z,21.13
2017-05-18T05:03:14.666Z,21.13
2017-05-18T05:04:14.169Z,21.19
2017-05-18T05:05:14.144Z,21.12
2017-05-18T05:06:14.235Z,21.13
2017-05-18T05:07:14.511Z,21.17
2017-05-18T05:08:14.244Z,21.13
2017-05-18T05:09:14.393Z,21.18
2017-05-18T05:10:13.496Z,21.13
2017-05-18T05:11:13.281Z,21.13
2017-05-18T05:12:14.070Z,21.13
2017-05-18T05:13:14.288Z,21.13
2017-05-18T05:14:14.619Z,21.13
2017-05-18T05:15:13.918Z,21.20
2017-05-18T05:16:15.020Z,21.13
2017-05-18T05:17:14.820Z,21.13
2017-05-18T05:18:13.772Z,21.14
2017-05-18T05:19:14.348Z,21.14
2017-05-18T05:20:14.549Z,21.15
2017-05-18T05:21:13.311Z,21.15
2017-05-18T05:22:15.546Z,21.15
2017-05-18T05:23:13.450Z,21.15
2017-05-18T05:24:10.084Z,21.15
2017-05-18T05:25:13.548Z,21.16
2017-05-18T05:26:13.800Z,21.16
2017-05-18T05:27:13.949Z,21.16
2017-05-18T05:28:14.066Z,21.17
2017-05-18T05:29:15.234Z,21.20
2017-05-18T05:30:14.741Z,21.16
2017-05-18T05:31:15.345Z,21.16
2017-05-18T05:32:14.405Z,21.17
2017-05-18T05:33:14.142Z,21.17
2017-05-18T05:34:14.937Z,21.17
2017-05-18T05:35:14.162Z,21.18
2017-05-18T05:36:14.510Z,21.18
2017-05-18T05:37:14.098Z,21.20
2017-05-18T05:38:14.302Z,21.35
2017-05-18T05:39:14.537Z,21.23
2017-05-18T05:40:13.956Z,21.20
2017-05-18T05:41:14.182Z,21.19
2017-05-18T05:42:11.736Z,21.18
2017-05-18T05:43:13.594Z,21.18
2017-05-18T05:44:10.259Z,21.18
2017-05-18T05:45:14.338Z,21.72
2017-05-18T05:46:15.014Z,21.76
2017-05-18T05:47:15.083Z,21.78
2017-05-18T05:48:14.265Z,21.79
2017-05-18T05:49:14.745Z,21.81
2017-05-18T05:50:09.299Z,21.83
2017-05-18T05:51:14.630Z,21.45
2017-05-18T05:52:13.393Z,21.31
2017-05-18T05:53:10.199Z,21.27
2017-05-18T05:54:14.210Z,21.22
2017-05-18T05:55:16.754Z,21.19
2017-05-18T05:56:13.795Z,21.17
2017-05-18T05:57:14.340Z,21.22
2017-05-18T05:58:14.098Z,21.13
2017-05-18T05:59:14.464Z,21.10
2017-05-18T06:00:13.469Z,21.07
2017-05-18T06:01:13.958Z,21.09
2017-05-18T06:02:14.213Z,21.01
2017-05-18T06:03:14.567Z,21.01
2017-05-18T06:04:13.724Z,21.01
2017-05-18T06:05:14.343Z,21.02
2017-05-18T06:06:13.983Z,20.99
2017-05-18T06:07:14.171Z,20.97
2017-05-18T06:08:14.046Z,20.95
2017-05-18T06:09:14.082Z,20.95
2017-05-18T06:10:11.530Z,20.94
2017-05-18T06:11:15.128Z,20.93
2017-05-18T06:12:15.171Z,20.94
2017-05-18T06:13:14.186Z,20.95
2017-05-18T06:14:13.990Z,20.97
2017-05-18T06:15:14.581Z,21.01
2017-05-18T06:16:13.561Z,21.48
2017-05-18T06:17:13.912Z,21.54
2017-05-18T06:18:13.907Z,21.60
2017-05-18T06:19:14.047Z,21.63
2017-05-18T06:20:14.081Z,21.66
2017-05-18T06:21:14.266Z,21.68
2017-05-18T06:22:11.550Z,21.69
2017-05-18T06:23:14.232Z,21.72
2017-05-18T06:24:14.499Z,21.74
2017-05-18T06:25:13.598Z,21.22
2017-05-18T06:26:13.760Z,21.23
2017-05-18T06:27:14.278Z,21.25
2017-05-18T06:28:15.334Z,21.18
2017-05-18T06:29:14.429Z,21.18
2017-05-18T06:30:12.617Z,21.17
2017-05-18T06:31:13.531Z,21.18
2017-05-18T06:32:11.128Z,21.18
2017-05-18T06:33:13.573Z,21.73
2017-05-18T06:34:13.974Z,21.77
2017-05-18T06:35:14.646Z,21.29
2017-05-18T06:36:14.108Z,21.24
2017-05-18T06:37:14.371Z,21.23
2017-05-18T06:38:14.738Z,21.23
2017-05-18T06:39:13.840Z,21.23
2017-05-18T06:40:14.409Z,21.23
2017-05-18T06:41:14.362Z,21.23
2017-05-18T06:42:14.966Z,21.24
2017-05-18T06:43:13.854Z,21.23
2017-05-18T06:44:14.794Z,21.21
2017-05-18T06:45:13.688Z,21.19
2017-05-18T06:46:11.124Z,21.15
2017-05-18T06:47:14.296Z,21.67
2017-05-18T06:48:14.416Z,21.65
2017-05-18T06:49:13.384Z,21.61
2017-05-18T06:50:14.518Z,21.15
2017-05-18T06:51:13.998Z,21.13
2017-05-18T06:52:14.089Z,21.11
2017-05-18T06:53:14.272Z,21.12
2017-05-18T06:54:13.774Z,21.12
2017-05-18T06:55:14.291Z,21.14
2017-05-18T06:56:10.223Z,21.13
2017-05-18T06:57:13.661Z,21.15
2017-05-18T06:58:14.224Z,21.21
2017-05-18T06:59:13.964Z,21.16
2017-05-18T07:00:14.584Z,21.17
2017-05-18T07:01:13.723Z,21.18
2017-05-18T07:02:13.765Z,21.18
2017-05-18T07:03:13.737Z,21.18
2017-05-18T07:04:14.226Z,21.19
2017-05-18T07:05:14.154Z,21.19
2017-05-18T07:06:14.302Z,21.20
2017-05-18T07:07:14.374Z,21.20
2017-05-18T07:08:14.971Z,21.24
2017-05-18T07:09:14.528Z,21.37
2017-05-18T07:10:13.479Z,21.26
2017-05-18T07:11:13.841Z,21.24
2017-05-18T07:12:14.171Z,21.22
2017-05-18T07:13:14.161Z,21.29
2017-05-18T07:14:11.819Z,21.22
2017-05-18T07:15:13.270Z,21.22
2017-05-18T07:16:14.593Z,21.22
2017-05-18T07:17:14.056Z,21.23
2017-05-18T07:18:14.350Z,21.23
2017-05-18T07:19:14.241Z,21.23
2017-05-18T07:20:14.164Z,21.23
2017-05-18T07:21:14.447Z,21.23
2017-05-18T07:22:14.058Z,21.24
2017-05-18T07:23:14.128Z,21.24
2017-05-18T07:24:15.300Z,21.23
2017-05-18T07:25:14.932Z,21.25
2017-05-18T07:26:14.480Z,21.24
2017-05-18T07:27:14.967Z,21.24
2017-05-18T07:28:14.070Z,21.25
2017-05-18T07:29:16.049Z,21.25
2017-05-18T07:30:14.204Z,21.24
2017-05-18T07:31:14.810Z,21.25
2017-05-18T07:32:13.864Z,21.26
2017-05-18T07:33:14.505Z,21.25
2017-05-18T07:34:13.552Z,21.25
2017-05-18T07:35:15.573Z,21.26
2017-05-18T07:36:14.869Z,21.26
2017-05-18T07:37:13.864Z,21.26
2017-05-18T07:38:13.955Z,21.26
2017-05-18T07:39:13.992Z,21.26
2017-05-18T07:40:14.193Z,21.32
2017-05-18T07:41:14.849Z,21.27
2017-05-18T07:42:13.726Z,21.26
2017-05-18T07:43:10.666Z,21.26
2017-05-18T07:44:11.054Z,21.27
2017-05-18T07:45:14.623Z,21.28
2017-05-18T07:46:13.562Z,21.27
2017-05-18T07:47:14.027Z,21.34
2017-05-18T07:48:14.409Z,21.33
2017-05-18T07:49:14.023Z,21.28
2017-05-18T07:50:13.962Z,21.28
2017-05-18T07:51:10.649Z,21.28
2017-05-18T07:52:13.805Z,21.81
2017-05-18T07:53:11.486Z,21.87
2017-05-18T07:54:14.502Z,21.89
2017-05-18T07:55:13.613Z,21.91
2017-05-18T07:56:13.804Z,21.55
2017-05-18T07:57:14.302Z,21.45
2017-05-18T07:58:15.488Z,21.35
2017-05-18T07:59:13.758Z,21.33
2017-05-18T08:00:13.506Z,21.32
2017-05-18T08:01:13.618Z,21.32
2017-05-18T08:02:13.787Z,21.32
2017-05-18T08:03:10.749Z,21.32
2017-05-18T08:04:14.201Z,21.33
2017-05-18T08:05:14.604Z,21.37
2017-05-18T08:06:14.103Z,21.41
2017-05-18T08:07:13.798Z,21.85
2017-05-18T08:08:13.960Z,21.90
2017-05-18T08:09:14.309Z,21.94
2017-05-18T08:10:14.617Z,21.92
2017-05-18T08:11:13.981Z,21.95
2017-05-18T08:12:14.212Z,21.44
2017-05-18T08:13:14.686Z,21.91
2017-05-18T08:14:13.715Z,21.42
2017-05-18T08:15:14.068Z,21.38
2017-05-18T08:16:14.429Z,21.36
2017-05-18T08:17:13.767Z,21.35
2017-05-18T08:18:14.381Z,21.34
2017-05-18T08:19:14.440Z,21.34
2017-05-18T08:20:10.614Z,21.34
2017-05-18T08:21:10.779Z,21.33
2017-05-18T08:22:14.464Z,21.34
2017-05-18T08:23:13.859Z,21.34
2017-05-18T08:24:10.941Z,21.34
2017-05-18T08:25:14.220Z,21.34
2017-05-18T08:26:11.638Z,21.33
2017-05-18T08:27:13.617Z,21.53
2017-05-18T08:28:12.703Z,21.39
2017-05-18T08:29:13.711Z,21.38
2017-05-18T08:30:14.188Z,21.36
2017-05-18T08:31:14.512Z,21.36
2017-05-18T08:32:14.761Z,21.35
2017-05-18T08:33:13.929Z,21.35
2017-05-18T08:34:13.964Z,21.35
2017-05-18T08:35:14.060Z,21.35
2017-05-18T08:36:14.569Z,21.42
2017-05-18T08:37:13.501Z,21.35
2017-05-18T08:38:13.669Z,21.35
2017-05-18T08:39:13.932Z,21.36
2017-05-18T08:40:14.422Z,21.35
2017-05-18T08:41:13.550Z,21.36
2017-05-18T08:42:13.743Z,21.36
2017-05-18T08:43:13.730Z,21.36
2017-05-18T08:44:14.402Z,21.39
2017-05-18T08:45:13.835Z,21.58
2017-05-18T08:46:11.155Z,21.41
2017-05-18T08:47:13.713Z,21.39
2017-05-18T08:48:10.525Z,21.38
2017-05-18T08:49:16.883Z,21.37
2017-05-18T08:50:15.127Z,21.38
2017-05-18T08:51:14.419Z,21.37
2017-05-18T08:52:17.925Z,21.37
2017-05-18T08:53:13.382Z,21.38
2017-05-18T08:54:14.877Z,21.44
2017-05-18T08:55:14.140Z,21.38
2017-05-18T08:56:14.376Z,21.38
2017-05-18T08:57:11.798Z,21.38
2017-05-18T08:58:14.084Z,21.41
2017-05-18T08:59:13.725Z,21.38
2017-05-18T09:00:14.314Z,21.46
2017-05-18T09:01:14.481Z,21.39
2017-05-18T09:02:13.765Z,21.39
2017-05-18T09:03:13.861Z,21.39
2017-05-18T09:04:14.523Z,21.43
2017-05-18T09:05:13.483Z,21.39
2017-05-18T09:06:14.203Z,21.39
2017-05-18T09:07:14.092Z,21.40
2017-05-18T09:08:13.945Z,21.38
2017-05-18T09:09:14.000Z,21.38
2017-05-18T09:10:14.468Z,21.42
2017-05-18T09:11:13.489Z,21.39
2017-05-18T09:12:14.104Z,21.43
2017-05-18T09:13:14.413Z,21.38
2017-05-18T09:14:13.317Z,21.59
2017-05-18T09:15:13.438Z,21.45
2017-05-18T09:16:13.615Z,21.41
2017-05-18T09:17:13.565Z,21.41
2017-05-18T09:18:13.620Z,21.40
2017-05-18T09:19:13.791Z,21.41
2017-05-18T09:20:14.332Z,21.40
2017-05-18T09:21:15.084Z,21.40
2017-05-18T09:22:15.029Z,21.39
2017-05-18T09:23:14.175Z,21.39
2017-05-18T09:24:14.092Z,21.39
2017-05-18T09:25:14.602Z,21.38
2017-05-18T09:26:14.520Z,21.39
2017-05-18T09:27:15.005Z,21.39
2017-05-18T09:28:14.182Z,21.38
2017-05-18T09:29:15.791Z,21.37
2017-05-18T09:30:15.475Z,21.37
2017-05-18T09:31:14.103Z,21.37
2017-05-18T09:32:14.663Z,21.37
2017-05-18T09:33:11.042Z,21.37
2017-05-18T09:34:13.990Z,21.37
2017-05-18T09:35:11.354Z,21.36
2017-05-18T09:36:13.852Z,21.37
2017-05-18T09:37:14.309Z,21.37
2017-05-18T09:38:14.522Z,21.37
2017-05-18T09:39:13.993Z,21.42
2017-05-18T09:40:14.511Z,21.37
2017-05-18T09:41:13.317Z,21.37
2017-05-18T09:42:14.566Z,21.44
2017-05-18T09:43:13.971Z,21.42
2017-05-18T09:44:13.900Z,21.37
2017-05-18T09:45:14.786Z,21.43
2017-05-18T09:46:13.996Z,21.37
2017-05-18T09:47:10.739Z,21.36
2017-05-18T09:48:13.212Z,21.37
2017-05-18T09:49:14.566Z,21.37
2017-05-18T09:50:13.657Z,21.38
2017-05-18T09:51:14.030Z,21.38
2017-05-18T09:52:14.463Z,21.38
2017-05-18T09:53:13.619Z,21.38
2017-05-18T09:54:14.417Z,21.39
2017-05-18T09:55:10.986Z,21.39
2017-05-18T09:56:13.388Z,21.40
2017-05-18T09:57:14.398Z,21.40
2017-05-18T09:58:14.242Z,21.40
2017-05-18T09:59:14.418Z,21.41
2017-05-18T10:00:13.934Z,21.40
2017-05-18T10:01:11.482Z,21.40
2017-05-18T10:02:13.952Z,21.59
2017-05-18T10:03:14.713Z,21.47
2017-05-18T10:04:14.481Z,21.44
2017-05-18T10:05:13.873Z,21.49
2017-05-18T10:06:14.007Z,21.43
2017-05-18T10:07:14.333Z,21.42
2017-05-18T10:08:14.506Z,21.43
2017-05-18T10:09:14.433Z,21.42
2017-05-18T10:10:14.544Z,21.43
2017-05-18T10:11:13.965Z,21.42
2017-05-18T10:12:14.217Z,21.96
2017-05-18T10:13:14.736Z,22.01
2017-05-18T10:14:14.294Z,22.03
2017-05-18T10:15:14.721Z,21.52
2017-05-18T10:16:13.694Z,21.48
2017-05-18T10:17:13.934Z,21.47
2017-05-18T10:18:14.161Z,21.45
2017-05-18T10:19:13.993Z,21.97
2017-05-18T10:20:14.038Z,21.50
2017-05-18T10:21:14.842Z,21.47
2017-05-18T10:22:13.954Z,21.46
2017-05-18T10:23:14.091Z,21.46
2017-05-18T10:24:15.105Z,21.45
2017-05-18T10:25:14.423Z,21.45
2017-05-18T10:26:15.206Z,21.46
2017-05-18T10:27:14.614Z,21.45
2017-05-18T10:28:14.287Z,21.64
2017-05-18T10:29:13.485Z,21.51
2017-05-18T10:30:14.740Z,21.48
2017-05-18T10:31:14.075Z,21.47
2017-05-18T10:32:15.170Z,21.47
2017-05-18T10:33:14.004Z,21.47
2017-05-18T10:34:14.378Z,21.50
2017-05-18T10:35:14.298Z,22.00
2017-05-18T10:36:10.059Z,22.04
2017-05-18T10:37:14.018Z,22.07
2017-05-18T10:38:14.069Z,22.09
2017-05-18T10:39:11.385Z,22.09
2017-05-18T10:40:14.258Z,21.82
2017-05-18T10:41:14.361Z,21.57
2017-05-18T10:42:14.852Z,21.53
2017-05-18T10:43:13.732Z,21.51
2017-05-18T10:44:14.102Z,21.49
2017-05-18T10:45:11.287Z,21.48
2017-05-18T10:46:15.392Z,21.48
2017-05-18T10:47:14.271Z,21.49
2017-05-18T10:48:14.503Z,21.48
2017-05-18T10:49:13.661Z,21.56
2017-05-18T10:50:13.666Z,21.49
2017-05-18T10:51:14.000Z,21.48
2017-05-18T10:52:14.980Z,21.52
2017-05-18T10:53:13.733Z,21.48
2017-05-18T10:54:17.252Z,21.48
2017-05-18T10:55:15.058Z,21.49
2017-05-18T10:56:13.923Z,21.49
2017-05-18T10:57:13.850Z,21.49
2017-05-18T10:58:10.759Z,21.48
2017-05-18T10:59:16.499Z,21.49
2017-05-18T11:00:14.973Z,21.49
2017-05-18T11:01:14.097Z,21.49
2017-05-18T11:02:11.369Z,21.49
2017-05-18T11:03:14.260Z,22.01
2017-05-18T11:04:14.487Z,22.08
2017-05-18T11:05:13.231Z,21.74
2017-05-18T11:06:20.022Z,21.58
2017-05-18T11:07:14.013Z,21.54
2017-05-18T11:08:14.524Z,21.61
2017-05-18T11:09:14.253Z,22.04
2017-05-18T11:10:14.594Z,22.10
2017-05-18T11:11:09.624Z,22.12
2017-05-18T11:12:11.321Z,22.13
2017-05-18T11:13:14.556Z,22.15
2017-05-18T11:14:13.979Z,22.15
2017-05-18T11:15:13.685Z,22.15
2017-05-18T11:16:13.858Z,22.15
2017-05-18T11:17:14.758Z,22.15
2017-05-18T11:18:14.191Z,22.15
2017-05-18T11:19:14.871Z,21.63
2017-05-18T11:20:13.779Z,21.58
2017-05-18T11:21:15.265Z,21.55
2017-05-18T11:22:14.355Z,21.54
2017-05-18T11:23:15.986Z,21.54
2017-05-18T11:24:14.188Z,21.59
2017-05-18T11:25:16.283Z,21.53
2017-05-18T11:26:14.485Z,21.53
2017-05-18T11:27:13.691Z,21.53
2017-05-18T11:28:14.345Z,21.52
2017-05-18T11:29:14.321Z,21.53
2017-05-18T11:30:14.261Z,21.53
2017-05-18T11:31:14.425Z,21.53
2017-05-18T11:32:13.368Z,21.53
2017-05-18T11:33:19.566Z,21.53
2017-05-18T11:34:14.074Z,21.53
2017-05-18T11:35:14.398Z,21.53
2017-05-18T11:36:11.558Z,21.53
2017-05-18T11:37:14.237Z,22.06
2017-05-18T11:38:14.178Z,21.76
2017-05-18T11:39:15.063Z,21.60
2017-05-18T11:40:14.071Z,21.56
2017-05-18T11:41:14.131Z,21.54
2017-05-18T11:42:14.152Z,21.54
2017-05-18T11:43:15.083Z,21.53
2017-05-18T11:44:14.263Z,21.54
2017-05-18T11:45:14.502Z,21.59
2017-05-18T11:46:13.945Z,21.53
2017-05-18T11:47:15.015Z,21.54
2017-05-18T11:48:11.556Z,22.06
2017-05-18T11:49:14.283Z,22.11
2017-05-18T11:50:11.309Z,22.14
2017-05-18T11:51:14.216Z,21.62
2017-05-18T11:52:14.343Z,21.58
2017-05-18T11:53:14.409Z,21.56
2017-05-18T11:54:14.270Z,21.56
2017-05-18T11:55:15.062Z,21.56
2017-05-18T11:56:14.971Z,21.55
2017-05-18T11:57:14.541Z,21.57
2017-05-18T11:58:15.134Z,21.70
2017-05-18T11:59:14.853Z,21.59
2017-05-18T12:00:14.021Z,21.57
2017-05-18T12:01:12.746Z,21.55
2017-05-18T12:02:10.956Z,21.55
2017-05-18T12:03:14.408Z,21.75
2017-05-18T12:04:13.827Z,21.65
2017-05-18T12:05:14.022Z,21.57
2017-05-18T12:06:14.251Z,21.56
2017-05-18T12:07:15.097Z,21.55
2017-05-18T12:08:15.213Z,21.55
2017-05-18T12:09:14.855Z,21.58
2017-05-18T12:10:14.809Z,21.56
2017-05-18T12:11:13.895Z,21.62
2017-05-18T12:12:13.965Z,21.56
2017-05-18T12:13:11.640Z,21.56
2017-05-18T12:14:11.102Z,21.55
2017-05-18T12:15:13.918Z,21.57
2017-05-18T12:16:13.918Z,21.57
2017-05-18T12:17:13.963Z,21.57
2017-05-18T12:18:14.851Z,21.57
2017-05-18T12:19:14.192Z,21.57
2017-05-18T12:20:14.828Z,21.57
2017-05-18T12:21:14.408Z,21.57
2017-05-18T12:22:15.173Z,21.57
2017-05-18T12:23:14.595Z,21.57
2017-05-18T12:24:16.240Z,21.58
2017-05-18T12:25:14.093Z,21.58
2017-05-18T12:26:16.510Z,21.58
2017-05-18T12:27:14.417Z,21.59
2017-05-18T12:28:14.115Z,21.63
2017-05-18T12:29:16.083Z,21.58
2017-05-18T12:30:11.345Z,21.58
2017-05-18T12:31:14.060Z,21.59
2017-05-18T12:32:14.245Z,21.60
2017-05-18T12:33:14.357Z,21.61
2017-05-18T12:34:14.375Z,21.61
2017-05-18T12:35:14.343Z,21.60
2017-05-18T12:36:15.274Z,21.61
2017-05-18T12:37:14.205Z,21.61
2017-05-18T12:38:11.538Z,21.61
2017-05-18T12:39:15.664Z,21.62
2017-05-18T12:40:13.556Z,21.62
2017-05-18T12:41:11.075Z,21.61
2017-05-18T12:42:15.029Z,21.59
2017-05-18T12:43:14.051Z,21.58
2017-05-18T12:44:14.914Z,21.58
2017-05-18T12:45:13.851Z,21.56
2017-05-18T12:46:13.962Z,21.56
2017-05-18T12:47:14.152Z,21.56
2017-05-18T12:48:14.115Z,21.57
2017-05-18T12:49:13.956Z,21.58
2017-05-18T12:50:14.000Z,21.60
2017-05-18T12:51:13.705Z,21.62
2017-05-18T12:52:14.433Z,21.67